sensor_id;sensor_type;location;lat;lon;timestamp;P1;durP1;ratioP1;P2;durP2;ratioP2
58808;SDS011;44579;51.672;7.834;2023-09-07T00:00:32;9.63;;;3.70;;
58808;SDS011;44579;51.672;7.834;2023-09-07T00:02:59;4.35;;;3.28;;
58808;SDS011;44579;51.672;7.834;2023-09-07T00:05:26;6.47;;;3.38;;
58808;SDS011;44579;51.672;7.834;2023-09-07T00:07:53;6.75;;;3.35;;
58808;SDS011;44579;51.672;7.834;2023-09-07T00:10:20;7.78;;;3.58;;
58808;SDS011;44579;51.672;7.834;2023-09-07T00:12:47;4.45;;;3.60;;
58808;SDS011;44579;51.672;7.834;2023-09-07T00:15:14;6.47;;;4.50;;
58808;SDS011;44579;51.672;7.834;2023-09-07T00:17:41;8.75;;;3.90;;
58808;SDS011;44579;51.672;7.834;2023-09-07T00:20:08;8.38;;;3.67;;
58808;SDS011;44579;51.672;7.834;2023-09-07T00:22:37;5.90;;;3.50;;
58808;SDS011;44579;51.672;7.834;2023-09-07T00:25:04;5.50;;;3.60;;
58808;SDS011;44579;51.672;7.834;2023-09-07T00:27:34;5.88;;;3.67;;
58808;SDS011;44579;51.672;7.834;2023-09-07T00:30:02;7.47;;;3.92;;
58808;SDS011;44579;51.672;7.834;2023-09-07T00:32:35;6.32;;;3.80;;
58808;SDS011;44579;51.672;7.834;2023-09-07T00:35:05;10.27;;;3.97;;
58808;SDS011;44579;51.672;7.834;2023-09-07T00:37:33;11.73;;;3.85;;
58808;SDS011;44579;51.672;7.834;2023-09-07T00:40:01;6.78;;;3.72;;
58808;SDS011;44579;51.672;7.834;2023-09-07T00:42:29;6.15;;;3.88;;
58808;SDS011;44579;51.672;7.834;2023-09-07T00:44:56;5.25;;;3.47;;
58808;SDS011;44579;51.672;7.834;2023-09-07T00:47:23;8.55;;;3.60;;
58808;SDS011;44579;51.672;7.834;2023-09-07T00:49:50;4.78;;;3.40;;
58808;SDS011;44579;51.672;7.834;2023-09-07T00:54:49;7.43;;;3.15;;
58808;SDS011;44579;51.672;7.834;2023-09-07T00:57:28;5.28;;;3.63;;
58808;SDS011;44579;51.672;7.834;2023-09-07T01:00:13;6.13;;;2.97;;
58808;SDS011;44579;51.672;7.834;2023-09-07T01:02:52;5.20;;;3.67;;
58808;SDS011;44579;51.672;7.834;2023-09-07T01:08:42;10.77;;;3.70;;
58808;SDS011;44579;51.672;7.834;2023-09-07T01:11:24;7.35;;;3.80;;
58808;SDS011;44579;51.672;7.834;2023-09-07T01:13:52;6.68;;;3.65;;
58808;SDS011;44579;51.672;7.834;2023-09-07T01:16:22;11.65;;;4.18;;
58808;SDS011;44579;51.672;7.834;2023-09-07T01:18:50;7.38;;;4.18;;
58808;SDS011;44579;51.672;7.834;2023-09-07T01:21:19;6.93;;;4.22;;
58808;SDS011;44579;51.672;7.834;2023-09-07T01:23:48;9.30;;;4.72;;
58808;SDS011;44579;51.672;7.834;2023-09-07T01:26:17;6.78;;;4.88;;
58808;SDS011;44579;51.672;7.834;2023-09-07T01:28:44;6.00;;;4.13;;
58808;SDS011;44579;51.672;7.834;2023-09-07T01:31:11;8.43;;;4.53;;
58808;SDS011;44579;51.672;7.834;2023-09-07T01:33:57;8.38;;;4.78;;
58808;SDS011;44579;51.672;7.834;2023-09-07T01:56:53;8.07;;;4.65;;
58808;SDS011;44579;51.672;7.834;2023-09-07T01:59:21;9.30;;;4.68;;
58808;SDS011;44579;51.672;7.834;2023-09-07T02:01:48;11.57;;;5.07;;
58808;SDS011;44579;51.672;7.834;2023-09-07T02:04:15;7.53;;;4.55;;
58808;SDS011;44579;51.672;7.834;2023-09-07T02:06:42;12.13;;;4.65;;
58808;SDS011;44579;51.672;7.834;2023-09-07T02:09:09;8.30;;;4.50;;
58808;SDS011;44579;51.672;7.834;2023-09-07T02:11:36;8.75;;;4.70;;
58808;SDS011;44579;51.672;7.834;2023-09-07T02:14:03;10.32;;;4.72;;
58808;SDS011;44579;51.672;7.834;2023-09-07T02:16:30;9.05;;;5.38;;
58808;SDS011;44579;51.672;7.834;2023-09-07T02:19:01;7.68;;;4.88;;
58808;SDS011;44579;51.672;7.834;2023-09-07T02:21:33;12.43;;;5.18;;
58808;SDS011;44579;51.672;7.834;2023-09-07T02:24:00;11.30;;;5.40;;
58808;SDS011;44579;51.672;7.834;2023-09-07T02:26:27;8.60;;;5.35;;
58808;SDS011;44579;51.672;7.834;2023-09-07T02:28:54;11.38;;;5.32;;
58808;SDS011;44579;51.672;7.834;2023-09-07T02:31:22;9.15;;;5.70;;
58808;SDS011;44579;51.672;7.834;2023-09-07T02:33:50;11.05;;;5.30;;
58808;SDS011;44579;51.672;7.834;2023-09-07T02:36:17;9.80;;;5.38;;
58808;SDS011;44579;51.672;7.834;2023-09-07T02:38:44;10.18;;;5.03;;
58808;SDS011;44579;51.672;7.834;2023-09-07T02:41:14;12.35;;;5.28;;
58808;SDS011;44579;51.672;7.834;2023-09-07T02:43:41;12.55;;;5.88;;
58808;SDS011;44579;51.672;7.834;2023-09-07T02:46:08;14.57;;;5.57;;
58808;SDS011;44579;51.672;7.834;2023-09-07T02:48:35;13.88;;;5.70;;
58808;SDS011;44579;51.672;7.834;2023-09-07T02:51:02;10.52;;;5.45;;
58808;SDS011;44579;51.672;7.834;2023-09-07T02:53:30;11.18;;;5.47;;
58808;SDS011;44579;51.672;7.834;2023-09-07T02:55:56;9.15;;;5.47;;
58808;SDS011;44579;51.672;7.834;2023-09-07T02:58:25;10.02;;;5.78;;
58808;SDS011;44579;51.672;7.834;2023-09-07T03:00:52;14.73;;;5.57;;
58808;SDS011;44579;51.672;7.834;2023-09-07T03:03:22;15.32;;;5.65;;
58808;SDS011;44579;51.672;7.834;2023-09-07T03:05:51;7.93;;;5.45;;
58808;SDS011;44579;51.672;7.834;2023-09-07T03:08:18;7.97;;;5.28;;
58808;SDS011;44579;51.672;7.834;2023-09-07T03:10:45;12.50;;;5.95;;
58808;SDS011;44579;51.672;7.834;2023-09-07T03:13:12;8.27;;;5.10;;
58808;SDS011;44579;51.672;7.834;2023-09-07T03:15:39;11.30;;;5.35;;
58808;SDS011;44579;51.672;7.834;2023-09-07T03:18:10;9.10;;;5.70;;
58808;SDS011;44579;51.672;7.834;2023-09-07T03:20:39;12.82;;;5.78;;
58808;SDS011;44579;51.672;7.834;2023-09-07T03:23:06;8.35;;;5.57;;
58808;SDS011;44579;51.672;7.834;2023-09-07T03:25:34;12.52;;;5.60;;
58808;SDS011;44579;51.672;7.834;2023-09-07T03:28:02;9.40;;;6.18;;
58808;SDS011;44579;51.672;7.834;2023-09-07T03:30:30;14.07;;;5.28;;
58808;SDS011;44579;51.672;7.834;2023-09-07T03:32:57;16.77;;;5.97;;
58808;SDS011;44579;51.672;7.834;2023-09-07T03:35:24;10.75;;;5.97;;
58808;SDS011;44579;51.672;7.834;2023-09-07T03:37:52;10.25;;;5.65;;
58808;SDS011;44579;51.672;7.834;2023-09-07T03:40:19;9.02;;;5.53;;
58808;SDS011;44579;51.672;7.834;2023-09-07T03:42:46;10.57;;;5.53;;
58808;SDS011;44579;51.672;7.834;2023-09-07T03:45:13;17.73;;;5.88;;
58808;SDS011;44579;51.672;7.834;2023-09-07T03:47:40;8.07;;;5.70;;
58808;SDS011;44579;51.672;7.834;2023-09-07T03:50:10;10.68;;;5.50;;
58808;SDS011;44579;51.672;7.834;2023-09-07T03:55:06;8.15;;;5.13;;
58808;SDS011;44579;51.672;7.834;2023-09-07T03:57:34;12.43;;;5.97;;
58808;SDS011;44579;51.672;7.834;2023-09-07T04:00:03;10.13;;;6.00;;
58808;SDS011;44579;51.672;7.834;2023-09-07T04:02:44;13.18;;;5.70;;
58808;SDS011;44579;51.672;7.834;2023-09-07T04:05:13;8.95;;;5.85;;
58808;SDS011;44579;51.672;7.834;2023-09-07T04:07:40;11.93;;;6.07;;
58808;SDS011;44579;51.672;7.834;2023-09-07T04:10:08;9.10;;;6.00;;
58808;SDS011;44579;51.672;7.834;2023-09-07T04:12:36;8.75;;;5.78;;
58808;SDS011;44579;51.672;7.834;2023-09-07T04:15:03;10.35;;;6.00;;
58808;SDS011;44579;51.672;7.834;2023-09-07T04:17:30;11.82;;;6.03;;
58808;SDS011;44579;51.672;7.834;2023-09-07T04:20:09;14.80;;;6.25;;
58808;SDS011;44579;51.672;7.834;2023-09-07T04:22:39;13.60;;;6.53;;
58808;SDS011;44579;51.672;7.834;2023-09-07T04:25:09;10.30;;;6.15;;
58808;SDS011;44579;51.672;7.834;2023-09-07T04:27:36;10.75;;;6.10;;
58808;SDS011;44579;51.672;7.834;2023-09-07T04:30:04;10.90;;;5.82;;
58808;SDS011;44579;51.672;7.834;2023-09-07T04:34:58;15.45;;;6.60;;
58808;SDS011;44579;51.672;7.834;2023-09-07T04:37:26;8.55;;;6.18;;
58808;SDS011;44579;51.672;7.834;2023-09-07T04:39:53;10.55;;;6.35;;
58808;SDS011;44579;51.672;7.834;2023-09-07T04:42:21;12.13;;;7.15;;
58808;SDS011;44579;51.672;7.834;2023-09-07T04:44:48;12.02;;;6.05;;
58808;SDS011;44579;51.672;7.834;2023-09-07T04:47:17;9.70;;;6.30;;
58808;SDS011;44579;51.672;7.834;2023-09-07T04:50:02;9.95;;;6.53;;
58808;SDS011;44579;51.672;7.834;2023-09-07T04:52:36;12.07;;;6.78;;
58808;SDS011;44579;51.672;7.834;2023-09-07T04:55:06;9.80;;;6.70;;
58808;SDS011;44579;51.672;7.834;2023-09-07T04:57:37;14.07;;;6.97;;
58808;SDS011;44579;51.672;7.834;2023-09-07T05:00:09;14.40;;;6.60;;
58808;SDS011;44579;51.672;7.834;2023-09-07T05:03:38;11.90;;;6.55;;
58808;SDS011;44579;51.672;7.834;2023-09-07T05:07:07;13.15;;;6.63;;
58808;SDS011;44579;51.672;7.834;2023-09-07T05:13:17;12.68;;;6.65;;
58808;SDS011;44579;51.672;7.834;2023-09-07T05:16:52;32.95;;;7.50;;
58808;SDS011;44579;51.672;7.834;2023-09-07T05:19:53;19.58;;;6.97;;
58808;SDS011;44579;51.672;7.834;2023-09-07T05:31:44;18.33;;;6.70;;
58808;SDS011;44579;51.672;7.834;2023-09-07T05:34:13;10.68;;;6.70;;
58808;SDS011;44579;51.672;7.834;2023-09-07T05:36:40;15.77;;;6.68;;
58808;SDS011;44579;51.672;7.834;2023-09-07T05:39:08;15.07;;;6.97;;
58808;SDS011;44579;51.672;7.834;2023-09-07T05:41:35;14.32;;;7.35;;
58808;SDS011;44579;51.672;7.834;2023-09-07T05:44:03;17.42;;;6.90;;
58808;SDS011;44579;51.672;7.834;2023-09-07T05:46:30;13.10;;;7.13;;
58808;SDS011;44579;51.672;7.834;2023-09-07T05:48:58;11.32;;;6.82;;
58808;SDS011;44579;51.672;7.834;2023-09-07T05:51:25;15.88;;;6.60;;
58808;SDS011;44579;51.672;7.834;2023-09-07T05:53:53;13.77;;;5.75;;
58808;SDS011;44579;51.672;7.834;2023-09-07T05:56:21;14.98;;;6.40;;
58808;SDS011;44579;51.672;7.834;2023-09-07T05:58:49;22.77;;;6.30;;
58808;SDS011;44579;51.672;7.834;2023-09-07T06:01:16;9.77;;;5.78;;
58808;SDS011;44579;51.672;7.834;2023-09-07T06:03:43;10.35;;;5.40;;
58808;SDS011;44579;51.672;7.834;2023-09-07T06:08:37;11.52;;;6.07;;
58808;SDS011;44579;51.672;7.834;2023-09-07T06:11:05;14.13;;;6.18;;
58808;SDS011;44579;51.672;7.834;2023-09-07T06:13:35;11.93;;;5.20;;
58808;SDS011;44579;51.672;7.834;2023-09-07T06:16:02;10.35;;;5.68;;
58808;SDS011;44579;51.672;7.834;2023-09-07T06:18:30;9.07;;;5.68;;
58808;SDS011;44579;51.672;7.834;2023-09-07T06:20:57;20.20;;;5.93;;
58808;SDS011;44579;51.672;7.834;2023-09-07T06:23:25;14.63;;;6.13;;
58808;SDS011;44579;51.672;7.834;2023-09-07T06:25:55;10.05;;;4.75;;
58808;SDS011;44579;51.672;7.834;2023-09-07T06:28:25;13.45;;;5.60;;
58808;SDS011;44579;51.672;7.834;2023-09-07T06:30:53;11.32;;;5.13;;
58808;SDS011;44579;51.672;7.834;2023-09-07T06:33:21;12.50;;;6.07;;
58808;SDS011;44579;51.672;7.834;2023-09-07T06:35:49;14.65;;;5.90;;
58808;SDS011;44579;51.672;7.834;2023-09-07T06:38:16;9.25;;;5.55;;
58808;SDS011;44579;51.672;7.834;2023-09-07T06:40:47;10.02;;;5.60;;
58808;SDS011;44579;51.672;7.834;2023-09-07T06:43:17;9.63;;;6.22;;
58808;SDS011;44579;51.672;7.834;2023-09-07T06:45:53;13.07;;;5.68;;
58808;SDS011;44579;51.672;7.834;2023-09-07T06:48:25;10.68;;;6.60;;
58808;SDS011;44579;51.672;7.834;2023-09-07T06:50:52;14.35;;;5.75;;
58808;SDS011;44579;51.672;7.834;2023-09-07T06:55:56;18.50;;;5.80;;
58808;SDS011;44579;51.672;7.834;2023-09-07T06:58:28;11.77;;;5.18;;
58808;SDS011;44579;51.672;7.834;2023-09-07T07:00:59;25.10;;;5.18;;
58808;SDS011;44579;51.672;7.834;2023-09-07T07:03:27;11.95;;;6.20;;
58808;SDS011;44579;51.672;7.834;2023-09-07T07:05:56;9.05;;;5.55;;
58808;SDS011;44579;51.672;7.834;2023-09-07T07:08:24;10.15;;;5.25;;
58808;SDS011;44579;51.672;7.834;2023-09-07T07:10:51;14.93;;;5.82;;
58808;SDS011;44579;51.672;7.834;2023-09-07T07:13:19;9.63;;;5.03;;
58808;SDS011;44579;51.672;7.834;2023-09-07T07:15:46;29.38;;;5.95;;
58808;SDS011;44579;51.672;7.834;2023-09-07T07:18:31;15.38;;;6.75;;
58808;SDS011;44579;51.672;7.834;2023-09-07T07:20:58;19.77;;;6.03;;
58808;SDS011;44579;51.672;7.834;2023-09-07T07:23:25;6.10;;;3.63;;
58808;SDS011;44579;51.672;7.834;2023-09-07T07:25:53;14.02;;;5.13;;
58808;SDS011;44579;51.672;7.834;2023-09-07T07:28:23;15.98;;;5.45;;
58808;SDS011;44579;51.672;7.834;2023-09-07T07:30:50;8.35;;;5.18;;
58808;SDS011;44579;51.672;7.834;2023-09-07T07:33:20;11.90;;;5.45;;
58808;SDS011;44579;51.672;7.834;2023-09-07T07:35:50;10.27;;;5.22;;
58808;SDS011;44579;51.672;7.834;2023-09-07T07:38:18;13.55;;;6.57;;
58808;SDS011;44579;51.672;7.834;2023-09-07T07:40:46;14.77;;;5.88;;
58808;SDS011;44579;51.672;7.834;2023-09-07T07:43:15;10.40;;;3.97;;
58808;SDS011;44579;51.672;7.834;2023-09-07T07:45:42;12.93;;;4.45;;
58808;SDS011;44579;51.672;7.834;2023-09-07T07:48:09;11.63;;;5.03;;
58808;SDS011;44579;51.672;7.834;2023-09-07T07:50:39;10.60;;;5.18;;
58808;SDS011;44579;51.672;7.834;2023-09-07T07:53:09;7.45;;;4.70;;
58808;SDS011;44579;51.672;7.834;2023-09-07T07:55:37;11.20;;;5.72;;
58808;SDS011;44579;51.672;7.834;2023-09-07T07:58:11;11.40;;;5.32;;
58808;SDS011;44579;51.672;7.834;2023-09-07T08:00:40;7.15;;;4.85;;
58808;SDS011;44579;51.672;7.834;2023-09-07T08:03:19;8.50;;;4.53;;
58808;SDS011;44579;51.672;7.834;2023-09-07T08:05:46;11.88;;;5.32;;
58808;SDS011;44579;51.672;7.834;2023-09-07T08:08:15;14.50;;;5.53;;
58808;SDS011;44579;51.672;7.834;2023-09-07T08:10:42;8.73;;;4.82;;
58808;SDS011;44579;51.672;7.834;2023-09-07T08:13:13;13.18;;;5.30;;
58808;SDS011;44579;51.672;7.834;2023-09-07T08:15:41;17.80;;;5.60;;
58808;SDS011;44579;51.672;7.834;2023-09-07T08:18:10;12.48;;;5.85;;
58808;SDS011;44579;51.672;7.834;2023-09-07T08:20:37;8.75;;;4.32;;
58808;SDS011;44579;51.672;7.834;2023-09-07T08:23:07;12.73;;;4.75;;
58808;SDS011;44579;51.672;7.834;2023-09-07T08:25:37;16.98;;;5.47;;
58808;SDS011;44579;51.672;7.834;2023-09-07T08:28:06;14.93;;;5.88;;
58808;SDS011;44579;51.672;7.834;2023-09-07T08:30:33;11.57;;;5.93;;
58808;SDS011;44579;51.672;7.834;2023-09-07T08:33:03;13.77;;;4.78;;
58808;SDS011;44579;51.672;7.834;2023-09-07T08:35:33;40.10;;;5.55;;
58808;SDS011;44579;51.672;7.834;2023-09-07T08:38:02;21.88;;;5.43;;
58808;SDS011;44579;51.672;7.834;2023-09-07T08:40:32;7.88;;;4.60;;
58808;SDS011;44579;51.672;7.834;2023-09-07T08:43:04;26.45;;;4.88;;
58808;SDS011;44579;51.672;7.834;2023-09-07T08:45:32;18.05;;;4.68;;
58808;SDS011;44579;51.672;7.834;2023-09-07T08:48:07;13.82;;;5.20;;
58808;SDS011;44579;51.672;7.834;2023-09-07T08:50:36;9.93;;;4.28;;
58808;SDS011;44579;51.672;7.834;2023-09-07T08:53:04;7.03;;;2.40;;
58808;SDS011;44579;51.672;7.834;2023-09-07T08:55:35;21.48;;;4.90;;
58808;SDS011;44579;51.672;7.834;2023-09-07T08:58:03;12.15;;;5.57;;
58808;SDS011;44579;51.672;7.834;2023-09-07T09:00:30;8.48;;;4.38;;
58808;SDS011;44579;51.672;7.834;2023-09-07T09:02:57;8.18;;;4.57;;
58808;SDS011;44579;51.672;7.834;2023-09-07T09:05:26;16.23;;;4.60;;
58808;SDS011;44579;51.672;7.834;2023-09-07T09:08:03;7.90;;;4.40;;
58808;SDS011;44579;51.672;7.834;2023-09-07T09:10:31;7.78;;;4.85;;
58808;SDS011;44579;51.672;7.834;2023-09-07T09:12:58;8.55;;;5.57;;
58808;SDS011;44579;51.672;7.834;2023-09-07T09:15:26;8.25;;;4.13;;
58808;SDS011;44579;51.672;7.834;2023-09-07T09:17:55;11.35;;;4.53;;
58808;SDS011;44579;51.672;7.834;2023-09-07T09:20:23;16.08;;;4.72;;
58808;SDS011;44579;51.672;7.834;2023-09-07T09:22:54;16.23;;;5.47;;
58808;SDS011;44579;51.672;7.834;2023-09-07T09:25:22;5.60;;;3.00;;
58808;SDS011;44579;51.672;7.834;2023-09-07T09:27:50;16.27;;;5.13;;
58808;SDS011;44579;51.672;7.834;2023-09-07T09:30:17;11.68;;;4.88;;
58808;SDS011;44579;51.672;7.834;2023-09-07T09:32:48;22.60;;;4.93;;
58808;SDS011;44579;51.672;7.834;2023-09-07T09:35:18;11.10;;;4.85;;
58808;SDS011;44579;51.672;7.834;2023-09-07T09:37:46;7.47;;;4.57;;
58808;SDS011;44579;51.672;7.834;2023-09-07T09:40:15;10.40;;;5.32;;
58808;SDS011;44579;51.672;7.834;2023-09-07T09:42:45;25.80;;;5.55;;
58808;SDS011;44579;51.672;7.834;2023-09-07T09:47:40;16.98;;;5.38;;
58808;SDS011;44579;51.672;7.834;2023-09-07T09:50:09;11.90;;;5.13;;
58808;SDS011;44579;51.672;7.834;2023-09-07T09:52:38;7.60;;;4.35;;
58808;SDS011;44579;51.672;7.834;2023-09-07T09:55:06;28.25;;;5.97;;
58808;SDS011;44579;51.672;7.834;2023-09-07T09:57:35;15.52;;;5.00;;
58808;SDS011;44579;51.672;7.834;2023-09-07T10:00:04;13.98;;;4.53;;
58808;SDS011;44579;51.672;7.834;2023-09-07T10:03:07;13.13;;;5.00;;
58808;SDS011;44579;51.672;7.834;2023-09-07T10:05:49;10.18;;;5.07;;
58808;SDS011;44579;51.672;7.834;2023-09-07T10:08:23;15.00;;;5.53;;
58808;SDS011;44579;51.672;7.834;2023-09-07T10:10:58;9.25;;;5.43;;
58808;SDS011;44579;51.672;7.834;2023-09-07T10:13:37;12.07;;;4.70;;
58808;SDS011;44579;51.672;7.834;2023-09-07T10:16:08;14.35;;;5.00;;
58808;SDS011;44579;51.672;7.834;2023-09-07T10:18:37;14.68;;;5.45;;
58808;SDS011;44579;51.672;7.834;2023-09-07T10:21:07;9.73;;;5.50;;
58808;SDS011;44579;51.672;7.834;2023-09-07T10:23:40;19.27;;;5.63;;
58808;SDS011;44579;51.672;7.834;2023-09-07T10:26:21;13.38;;;5.53;;
58808;SDS011;44579;51.672;7.834;2023-09-07T10:29:00;11.73;;;5.18;;
58808;SDS011;44579;51.672;7.834;2023-09-07T10:31:30;10.75;;;4.93;;
58808;SDS011;44579;51.672;7.834;2023-09-07T10:49:35;16.50;;;3.72;;
58808;SDS011;44579;51.672;7.834;2023-09-07T10:52:03;9.40;;;3.85;;
58808;SDS011;44579;51.672;7.834;2023-09-07T10:54:30;8.43;;;3.65;;
58808;SDS011;44579;51.672;7.834;2023-09-07T10:56:57;4.35;;;2.65;;
58808;SDS011;44579;51.672;7.834;2023-09-07T11:00:29;10.32;;;4.05;;
58808;SDS011;44579;51.672;7.834;2023-09-07T11:02:56;9.23;;;4.18;;
58808;SDS011;44579;51.672;7.834;2023-09-07T11:05:24;11.93;;;4.10;;
58808;SDS011;44579;51.672;7.834;2023-09-07T11:07:54;19.00;;;4.88;;
58808;SDS011;44579;51.672;7.834;2023-09-07T11:10:25;13.52;;;4.50;;
58808;SDS011;44579;51.672;7.834;2023-09-07T11:12:55;18.85;;;5.57;;
58808;SDS011;44579;51.672;7.834;2023-09-07T11:15:25;15.50;;;4.82;;
58808;SDS011;44579;51.672;7.834;2023-09-07T11:17:53;11.50;;;5.53;;
58808;SDS011;44579;51.672;7.834;2023-09-07T11:20:35;5.45;;;3.65;;
58808;SDS011;44579;51.672;7.834;2023-09-07T11:23:19;11.57;;;4.45;;
58808;SDS011;44579;51.672;7.834;2023-09-07T11:25:50;11.27;;;5.03;;
58808;SDS011;44579;51.672;7.834;2023-09-07T11:28:21;11.25;;;3.50;;
58808;SDS011;44579;51.672;7.834;2023-09-07T11:30:54;8.73;;;4.20;;
58808;SDS011;44579;51.672;7.834;2023-09-07T11:33:22;12.65;;;5.05;;
58808;SDS011;44579;51.672;7.834;2023-09-07T11:35:50;7.82;;;3.85;;
58808;SDS011;44579;51.672;7.834;2023-09-07T11:38:20;11.70;;;4.38;;
58808;SDS011;44579;51.672;7.834;2023-09-07T11:40:48;10.88;;;4.20;;
58808;SDS011;44579;51.672;7.834;2023-09-07T11:45:43;8.95;;;4.97;;
58808;SDS011;44579;51.672;7.834;2023-09-07T11:48:14;10.48;;;3.50;;
58808;SDS011;44579;51.672;7.834;2023-09-07T11:50:44;1.42;;;1.15;;
58808;SDS011;44579;51.672;7.834;2023-09-07T11:53:11;6.22;;;3.97;;
58808;SDS011;44579;51.672;7.834;2023-09-07T11:55:38;6.93;;;4.50;;
58808;SDS011;44579;51.672;7.834;2023-09-07T11:58:07;5.53;;;3.80;;
58808;SDS011;44579;51.672;7.834;2023-09-07T12:03:01;9.68;;;3.45;;
58808;SDS011;44579;51.672;7.834;2023-09-07T12:05:28;10.48;;;4.95;;
58808;SDS011;44579;51.672;7.834;2023-09-07T12:07:55;10.95;;;3.80;;
58808;SDS011;44579;51.672;7.834;2023-09-07T12:10:22;22.45;;;3.17;;
58808;SDS011;44579;51.672;7.834;2023-09-07T12:12:50;4.97;;;1.88;;
58808;SDS011;44579;51.672;7.834;2023-09-07T12:15:17;13.05;;;3.90;;
58808;SDS011;44579;51.672;7.834;2023-09-07T12:17:44;3.10;;;2.20;;
58808;SDS011;44579;51.672;7.834;2023-09-07T12:20:11;8.60;;;3.92;;
58808;SDS011;44579;51.672;7.834;2023-09-07T12:22:40;6.60;;;2.88;;
58808;SDS011;44579;51.672;7.834;2023-09-07T12:27:41;4.78;;;2.45;;
58808;SDS011;44579;51.672;7.834;2023-09-07T12:30:17;18.52;;;4.00;;
58808;SDS011;44579;51.672;7.834;2023-09-07T12:32:47;8.63;;;1.88;;
58808;SDS011;44579;51.672;7.834;2023-09-07T12:35:15;5.95;;;3.35;;
58808;SDS011;44579;51.672;7.834;2023-09-07T12:37:43;8.43;;;3.67;;
58808;SDS011;44579;51.672;7.834;2023-09-07T12:40:10;6.45;;;2.60;;
58808;SDS011;44579;51.672;7.834;2023-09-07T12:42:40;7.03;;;3.40;;
58808;SDS011;44579;51.672;7.834;2023-09-07T12:45:08;4.65;;;1.83;;
58808;SDS011;44579;51.672;7.834;2023-09-07T12:47:37;9.57;;;3.10;;
58808;SDS011;44579;51.672;7.834;2023-09-07T12:50:05;10.55;;;3.53;;
58808;SDS011;44579;51.672;7.834;2023-09-07T12:52:35;9.60;;;2.65;;
58808;SDS011;44579;51.672;7.834;2023-09-07T12:55:05;6.10;;;2.65;;
58808;SDS011;44579;51.672;7.834;2023-09-07T12:57:34;7.68;;;2.42;;
58808;SDS011;44579;51.672;7.834;2023-09-07T13:00:03;6.30;;;2.80;;
58808;SDS011;44579;51.672;7.834;2023-09-07T13:02:32;10.07;;;3.20;;
58808;SDS011;44579;51.672;7.834;2023-09-07T13:04:59;5.93;;;1.67;;
58808;SDS011;44579;51.672;7.834;2023-09-07T13:09:53;5.00;;;2.40;;
58808;SDS011;44579;51.672;7.834;2023-09-07T13:12:21;1.95;;;1.15;;
58808;SDS011;44579;51.672;7.834;2023-09-07T13:17:15;2.40;;;1.58;;
58808;SDS011;44579;51.672;7.834;2023-09-07T13:19:45;8.35;;;2.15;;
58808;SDS011;44579;51.672;7.834;2023-09-07T13:22:14;1.92;;;1.35;;
58808;SDS011;44579;51.672;7.834;2023-09-07T13:24:41;8.35;;;2.42;;
58808;SDS011;44579;51.672;7.834;2023-09-07T13:27:08;9.15;;;2.67;;
58808;SDS011;44579;51.672;7.834;2023-09-07T13:29:36;4.45;;;2.40;;
58808;SDS011;44579;51.672;7.834;2023-09-07T13:32:03;4.20;;;2.05;;
58808;SDS011;44579;51.672;7.834;2023-09-07T13:34:30;2.97;;;1.85;;
58808;SDS011;44579;51.672;7.834;2023-09-07T13:36:58;3.42;;;2.00;;
58808;SDS011;44579;51.672;7.834;2023-09-07T13:39:25;19.27;;;2.47;;
58808;SDS011;44579;51.672;7.834;2023-09-07T13:41:52;4.28;;;1.95;;
58808;SDS011;44579;51.672;7.834;2023-09-07T13:46:45;6.45;;;2.75;;
58808;SDS011;44579;51.672;7.834;2023-09-07T13:49:13;5.63;;;2.15;;
58808;SDS011;44579;51.672;7.834;2023-09-07T13:51:41;7.22;;;2.25;;
58808;SDS011;44579;51.672;7.834;2023-09-07T13:54:08;6.15;;;2.63;;
58808;SDS011;44579;51.672;7.834;2023-09-07T13:56:35;3.80;;;1.45;;
58808;SDS011;44579;51.672;7.834;2023-09-07T13:59:03;8.90;;;2.67;;
58808;SDS011;44579;51.672;7.834;2023-09-07T14:01:31;6.07;;;1.48;;
58808;SDS011;44579;51.672;7.834;2023-09-07T14:03:59;5.68;;;2.42;;
58808;SDS011;44579;51.672;7.834;2023-09-07T14:06:26;8.18;;;2.92;;
58808;SDS011;44579;51.672;7.834;2023-09-07T14:08:53;12.95;;;2.78;;
58808;SDS011;44579;51.672;7.834;2023-09-07T14:11:20;17.58;;;2.83;;
58808;SDS011;44579;51.672;7.834;2023-09-07T14:13:49;4.90;;;2.60;;
58808;SDS011;44579;51.672;7.834;2023-09-07T14:16:18;6.18;;;2.45;;
58808;SDS011;44579;51.672;7.834;2023-09-07T14:18:48;4.03;;;2.47;;
58808;SDS011;44579;51.672;7.834;2023-09-07T14:21:16;6.80;;;3.38;;
58808;SDS011;44579;51.672;7.834;2023-09-07T14:23:46;6.88;;;2.60;;
58808;SDS011;44579;51.672;7.834;2023-09-07T14:26:13;9.60;;;2.85;;
58808;SDS011;44579;51.672;7.834;2023-09-07T14:28:40;4.82;;;1.75;;
58808;SDS011;44579;51.672;7.834;2023-09-07T14:33:35;3.63;;;2.45;;
58808;SDS011;44579;51.672;7.834;2023-09-07T14:36:06;5.40;;;2.40;;
58808;SDS011;44579;51.672;7.834;2023-09-07T14:38:34;9.20;;;3.13;;
58808;SDS011;44579;51.672;7.834;2023-09-07T14:47:47;4.28;;;2.65;;
58808;SDS011;44579;51.672;7.834;2023-09-07T14:50:20;1.83;;;1.23;;
58808;SDS011;44579;51.672;7.834;2023-09-07T14:53:20;6.97;;;2.72;;
58808;SDS011;44579;51.672;7.834;2023-09-07T14:55:51;5.10;;;2.50;;
58808;SDS011;44579;51.672;7.834;2023-09-07T14:58:19;2.03;;;1.25;;
58808;SDS011;44579;51.672;7.834;2023-09-07T15:01:19;11.30;;;2.70;;
58808;SDS011;44579;51.672;7.834;2023-09-07T15:03:54;2.63;;;1.60;;
58808;SDS011;44579;51.672;7.834;2023-09-07T15:06:25;7.97;;;2.80;;
58808;SDS011;44579;51.672;7.834;2023-09-07T15:09:00;6.90;;;2.03;;
58808;SDS011;44579;51.672;7.834;2023-09-07T15:11:33;7.88;;;2.90;;
58808;SDS011;44579;51.672;7.834;2023-09-07T15:17:15;3.20;;;1.30;;
58808;SDS011;44579;51.672;7.834;2023-09-07T15:19:50;11.02;;;2.50;;
58808;SDS011;44579;51.672;7.834;2023-09-07T15:22:23;3.92;;;2.03;;
58808;SDS011;44579;51.672;7.834;2023-09-07T15:24:56;3.20;;;2.05;;
58808;SDS011;44579;51.672;7.834;2023-09-07T15:27:27;1.80;;;0.98;;
58808;SDS011;44579;51.672;7.834;2023-09-07T15:30:20;4.57;;;2.10;;
58808;SDS011;44579;51.672;7.834;2023-09-07T15:32:54;3.63;;;2.13;;
58808;SDS011;44579;51.672;7.834;2023-09-07T15:35:28;6.35;;;2.53;;
58808;SDS011;44579;51.672;7.834;2023-09-07T15:41:01;4.80;;;2.35;;
58808;SDS011;44579;51.672;7.834;2023-09-07T15:46:23;5.10;;;1.63;;
58808;SDS011;44579;51.672;7.834;2023-09-07T15:48:52;5.80;;;2.20;;
58808;SDS011;44579;51.672;7.834;2023-09-07T15:51:24;4.05;;;2.00;;
58808;SDS011;44579;51.672;7.834;2023-09-07T15:53:55;4.97;;;1.63;;
58808;SDS011;44579;51.672;7.834;2023-09-07T15:56:34;1.38;;;0.85;;
58808;SDS011;44579;51.672;7.834;2023-09-07T15:59:01;7.57;;;2.63;;
58808;SDS011;44579;51.672;7.834;2023-09-07T16:01:29;4.10;;;1.95;;
58808;SDS011;44579;51.672;7.834;2023-09-07T16:03:56;6.88;;;2.30;;
58808;SDS011;44579;51.672;7.834;2023-09-07T16:06:58;3.33;;;1.75;;
58808;SDS011;44579;51.672;7.834;2023-09-07T16:09:53;5.25;;;1.67;;
58808;SDS011;44579;51.672;7.834;2023-09-07T16:12:24;2.75;;;2.03;;
58808;SDS011;44579;51.672;7.834;2023-09-07T16:15:08;5.75;;;2.00;;
58808;SDS011;44579;51.672;7.834;2023-09-07T16:17:39;2.25;;;1.17;;
58808;SDS011;44579;51.672;7.834;2023-09-07T16:20:09;4.35;;;2.08;;
58808;SDS011;44579;51.672;7.834;2023-09-07T16:22:45;5.57;;;1.85;;
58808;SDS011;44579;51.672;7.834;2023-09-07T16:25:13;10.20;;;1.88;;
58808;SDS011;44579;51.672;7.834;2023-09-07T16:27:59;5.95;;;2.10;;
58808;SDS011;44579;51.672;7.834;2023-09-07T16:30:29;5.30;;;1.88;;
58808;SDS011;44579;51.672;7.834;2023-09-07T16:32:57;3.33;;;1.83;;
58808;SDS011;44579;51.672;7.834;2023-09-07T16:35:25;3.55;;;2.00;;
58808;SDS011;44579;51.672;7.834;2023-09-07T16:38:26;4.53;;;1.83;;
58808;SDS011;44579;51.672;7.834;2023-09-07T16:41:03;4.85;;;1.75;;